Погода Абу-Дабина неделю

Абу-Даби, ОАЭ

20 - 26 июля
  • 20июля
    Сегодня
    +33°
    +37°
    Облачно с прояснениями
    ВремяПогодаТемператураВлажностьДавлениеВетер, м/сВероятность осадков
    01:00Облачно с прояснениями+34°C77 %744 мм2.3 м/с0 %
    04:00Небольшая облачность+34°C80 %743 мм1.1 м/с0 %
    07:00Практически безоблачно+33°C83 %744 мм0.7 м/с0 %
    10:00Ясно и безоблачно+35°C74 %745 мм1.7 м/с0 %
    13:00Облачно с прояснениями+36°C69 %745 мм4.3 м/с0 %
    16:00Небольшая облачность+37°C73 %744 мм5.2 м/с0 %
    19:00Практически безоблачно+36°C77 %744 мм4.0 м/с0 %
    22:00Практически безоблачно+35°C81 %745 мм3.8 м/с0 %
  • 21июля
    Воскресенье
    +33°
    +38°
    Ясно и безоблачно
    ВремяПогодаТемператураВлажностьДавлениеВетер, м/сВероятность осадков
    01:00Небольшая облачность+34°C86 %745 мм3.1 м/с0 %
    04:00Небольшая облачность+34°C89 %745 мм2.7 м/с0 %
    07:00Облачно с прояснениями+34°C86 %746 мм2.4 м/с0 %
    10:00Ясно и безоблачно+36°C73 %746 мм2.1 м/с0 %
    13:00Ясно и безоблачно+37°C65 %745 мм4.8 м/с0 %
    16:00Ясно и безоблачно+37°C69 %744 мм5.5 м/с0 %
    19:00Облачно с прояснениями+36°C76 %744 мм4.9 м/с0 %
    22:00Практически безоблачно+35°C82 %745 мм4.7 м/с0 %
  • 22июля
    Понедельник
    +33°
    +38°
    Практически безоблачно
    ВремяПогодаТемператураВлажностьДавлениеВетер, м/сВероятность осадков
    01:00Облачно с прояснениями+35°C81 %745 мм4.0 м/с0 %
    04:00Ясно и безоблачно+35°C82 %745 мм0.9 м/с0 %
    07:00Облачно с прояснениями+34°C85 %746 мм2.1 м/с0 %
    10:00Небольшая облачность+37°C61 %746 мм2.5 м/с0 %
    13:00Практически безоблачно+38°C58 %745 мм4.8 м/с0 %
    16:00Практически безоблачно+38°C59 %744 мм5.5 м/с0 %
    19:00Ясно и безоблачно+36°C73 %745 мм5.2 м/с0 %
    22:00Ясно и безоблачно+35°C76 %746 мм5.2 м/с0 %
  • 23июля
    Вторник
    +34°
    +38°
    Ясно и безоблачно
    ВремяПогодаТемператураВлажностьДавлениеВетер, м/сВероятность осадков
    01:00Практически безоблачно+35°C75 %746 мм4.8 м/с0 %
    04:00Ясно и безоблачно+34°C73 %745 мм1.8 м/с0 %
    07:00Ясно и безоблачно+34°C70 %746 мм2.4 м/с0 %
    10:00Практически безоблачно+36°C54 %747 мм4.1 м/с0 %
    13:00Ясно и безоблачно+38°C51 %746 мм6.1 м/с0 %
    16:00Облачно с прояснениями+37°C63 %745 мм7.6 м/с0 %
    19:00Небольшая облачность+36°C72 %745 мм6.4 м/с0 %
    22:00Практически безоблачно+35°C71 %745 мм5.0 м/с0 %
  • 24июля
    Среда
    +34°
    +39°
    Ясно и безоблачно
    ВремяПогодаТемператураВлажностьДавлениеВетер, м/сВероятность осадков
    01:00Ясно и безоблачно+35°C71 %744 мм2.4 м/с0 %
    04:00Ясно и безоблачно+35°C74 %744 мм4.1 м/с0 %
    07:00Ясно и безоблачно+35°C65 %744 мм4.5 м/с0 %
    10:00Ясно и безоблачно+36°C49 %744 мм6.3 м/с0 %
    13:00Ясно и безоблачно+38°C47 %744 мм7.5 м/с0 %
    16:00Ясно и безоблачно+38°C48 %743 мм6.9 м/с0 %
    19:00Ясно и безоблачно+37°C60 %742 мм5.3 м/с0 %
    22:00Практически безоблачно+36°C68 %743 мм4.1 м/с0 %
Мы используем cookies
Соглашаюсь